sensor_id;sensor_type;location;lat;lon;timestamp;P1;durP1;ratioP1;P2;durP2;ratioP2
64061;SDS011;50308;47.438;-1.528;2024-01-30T00:01:15;19.15;;;12.23;;
64061;SDS011;50308;47.438;-1.528;2024-01-30T00:03:40;18.73;;;12.40;;
64061;SDS011;50308;47.438;-1.528;2024-01-30T00:06:06;16.90;;;12.80;;
64061;SDS011;50308;47.438;-1.528;2024-01-30T00:08:36;17.73;;;13.18;;
64061;SDS011;50308;47.438;-1.528;2024-01-30T00:11:01;18.83;;;12.55;;
64061;SDS011;50308;47.438;-1.528;2024-01-30T00:13:27;17.65;;;12.70;;
64061;SDS011;50308;47.438;-1.528;2024-01-30T00:15:53;19.33;;;13.48;;
64061;SDS011;50308;47.438;-1.528;2024-01-30T00:18:19;20.00;;;13.60;;
64061;SDS011;50308;47.438;-1.528;2024-01-30T00:20:44;18.80;;;12.90;;
64061;SDS011;50308;47.438;-1.528;2024-01-30T00:23:10;16.85;;;12.70;;
64061;SDS011;50308;47.438;-1.528;2024-01-30T00:25:36;19.13;;;13.73;;
64061;SDS011;50308;47.438;-1.528;2024-01-30T00:28:01;18.70;;;14.10;;
64061;SDS011;50308;47.438;-1.528;2024-01-30T00:30:27;20.70;;;13.68;;
64061;SDS011;50308;47.438;-1.528;2024-01-30T00:32:53;18.55;;;13.55;;
64061;SDS011;50308;47.438;-1.528;2024-01-30T00:35:19;18.92;;;13.55;;
64061;SDS011;50308;47.438;-1.528;2024-01-30T00:37:47;19.40;;;13.65;;
64061;SDS011;50308;47.438;-1.528;2024-01-30T00:40:12;18.13;;;13.65;;
64061;SDS011;50308;47.438;-1.528;2024-01-30T00:42:41;21.55;;;14.27;;
64061;SDS011;50308;47.438;-1.528;2024-01-30T00:45:16;21.98;;;13.88;;
64061;SDS011;50308;47.438;-1.528;2024-01-30T00:47:42;19.63;;;13.05;;
64061;SDS011;50308;47.438;-1.528;2024-01-30T00:50:08;20.33;;;14.05;;
64061;SDS011;50308;47.438;-1.528;2024-01-30T00:52:34;20.55;;;14.18;;
64061;SDS011;50308;47.438;-1.528;2024-01-30T00:55:00;21.48;;;14.23;;
64061;SDS011;50308;47.438;-1.528;2024-01-30T00:57:26;20.67;;;13.82;;
64061;SDS011;50308;47.438;-1.528;2024-01-30T00:59:52;20.38;;;13.82;;
64061;SDS011;50308;47.438;-1.528;2024-01-30T01:02:18;21.45;;;13.52;;
64061;SDS011;50308;47.438;-1.528;2024-01-30T01:04:43;20.67;;;13.88;;
64061;SDS011;50308;47.438;-1.528;2024-01-30T01:07:10;20.00;;;13.43;;
64061;SDS011;50308;47.438;-1.528;2024-01-30T01:09:36;19.17;;;13.82;;
64061;SDS011;50308;47.438;-1.528;2024-01-30T01:12:02;20.73;;;13.80;;
64061;SDS011;50308;47.438;-1.528;2024-01-30T01:14:28;21.95;;;14.43;;
64061;SDS011;50308;47.438;-1.528;2024-01-30T01:16:54;18.83;;;13.30;;
64061;SDS011;50308;47.438;-1.528;2024-01-30T01:19:19;17.52;;;13.52;;
64061;SDS011;50308;47.438;-1.528;2024-01-30T01:21:45;18.08;;;14.25;;
64061;SDS011;50308;47.438;-1.528;2024-01-30T01:24:11;17.63;;;13.55;;
64061;SDS011;50308;47.438;-1.528;2024-01-30T01:26:36;19.02;;;13.75;;
64061;SDS011;50308;47.438;-1.528;2024-01-30T01:29:02;18.83;;;12.77;;
64061;SDS011;50308;47.438;-1.528;2024-01-30T01:31:34;18.27;;;14.85;;
64061;SDS011;50308;47.438;-1.528;2024-01-30T01:34:04;18.65;;;14.30;;
64061;SDS011;50308;47.438;-1.528;2024-01-30T01:36:31;20.00;;;13.95;;
64061;SDS011;50308;47.438;-1.528;2024-01-30T01:38:56;21.45;;;13.77;;
64061;SDS011;50308;47.438;-1.528;2024-01-30T01:41:22;19.40;;;13.85;;
64061;SDS011;50308;47.438;-1.528;2024-01-30T01:43:48;19.23;;;13.23;;
64061;SDS011;50308;47.438;-1.528;2024-01-30T01:46:13;18.58;;;14.23;;
64061;SDS011;50308;47.438;-1.528;2024-01-30T01:48:39;16.10;;;12.25;;
64061;SDS011;50308;47.438;-1.528;2024-01-30T01:51:07;17.40;;;13.23;;
64061;SDS011;50308;47.438;-1.528;2024-01-30T01:53:34;17.48;;;12.45;;
64061;SDS011;50308;47.438;-1.528;2024-01-30T01:56:00;18.70;;;12.52;;
64061;SDS011;50308;47.438;-1.528;2024-01-30T01:58:25;17.20;;;12.15;;
64061;SDS011;50308;47.438;-1.528;2024-01-30T02:00:54;17.17;;;12.50;;
64061;SDS011;50308;47.438;-1.528;2024-01-30T02:03:21;20.52;;;12.35;;
64061;SDS011;50308;47.438;-1.528;2024-01-30T02:05:47;18.45;;;12.23;;
64061;SDS011;50308;47.438;-1.528;2024-01-30T02:08:13;19.75;;;12.23;;
64061;SDS011;50308;47.438;-1.528;2024-01-30T02:10:38;16.50;;;11.50;;
64061;SDS011;50308;47.438;-1.528;2024-01-30T02:13:04;18.83;;;12.18;;
64061;SDS011;50308;47.438;-1.528;2024-01-30T02:15:30;12.82;;;10.82;;
64061;SDS011;50308;47.438;-1.528;2024-01-30T02:17:55;21.70;;;13.10;;
64061;SDS011;50308;47.438;-1.528;2024-01-30T02:20:21;19.90;;;13.02;;
64061;SDS011;50308;47.438;-1.528;2024-01-30T02:22:49;16.58;;;11.60;;
64061;SDS011;50308;47.438;-1.528;2024-01-30T02:25:17;17.33;;;12.02;;
64061;SDS011;50308;47.438;-1.528;2024-01-30T02:27:43;17.25;;;12.07;;
64061;SDS011;50308;47.438;-1.528;2024-01-30T02:30:09;17.88;;;12.23;;
64061;SDS011;50308;47.438;-1.528;2024-01-30T02:32:35;17.52;;;11.88;;
64061;SDS011;50308;47.438;-1.528;2024-01-30T02:35:01;20.75;;;12.05;;
64061;SDS011;50308;47.438;-1.528;2024-01-30T02:37:26;18.63;;;12.93;;
64061;SDS011;50308;47.438;-1.528;2024-01-30T02:39:52;17.13;;;12.13;;
64061;SDS011;50308;47.438;-1.528;2024-01-30T02:42:18;20.13;;;13.02;;
64061;SDS011;50308;47.438;-1.528;2024-01-30T02:44:43;18.10;;;12.15;;
64061;SDS011;50308;47.438;-1.528;2024-01-30T02:47:09;19.30;;;12.27;;
64061;SDS011;50308;47.438;-1.528;2024-01-30T02:49:34;15.88;;;11.85;;
64061;SDS011;50308;47.438;-1.528;2024-01-30T02:52:00;16.98;;;12.10;;
64061;SDS011;50308;47.438;-1.528;2024-01-30T02:54:26;18.05;;;12.18;;
64061;SDS011;50308;47.438;-1.528;2024-01-30T02:56:51;15.77;;;11.63;;
64061;SDS011;50308;47.438;-1.528;2024-01-30T02:59:17;18.75;;;11.63;;
64061;SDS011;50308;47.438;-1.528;2024-01-30T03:01:43;15.80;;;11.18;;
64061;SDS011;50308;47.438;-1.528;2024-01-30T03:04:09;17.13;;;11.05;;
64061;SDS011;50308;47.438;-1.528;2024-01-30T03:06:36;19.23;;;11.75;;
64061;SDS011;50308;47.438;-1.528;2024-01-30T03:09:01;16.77;;;11.18;;
64061;SDS011;50308;47.438;-1.528;2024-01-30T03:11:28;18.02;;;11.00;;
64061;SDS011;50308;47.438;-1.528;2024-01-30T03:13:53;19.20;;;10.32;;
64061;SDS011;50308;47.438;-1.528;2024-01-30T03:16:19;19.23;;;10.00;;
64061;SDS011;50308;47.438;-1.528;2024-01-30T03:18:44;20.90;;;10.30;;
64061;SDS011;50308;47.438;-1.528;2024-01-30T03:21:10;21.42;;;11.23;;
64061;SDS011;50308;47.438;-1.528;2024-01-30T03:23:36;18.35;;;9.63;;
64061;SDS011;50308;47.438;-1.528;2024-01-30T03:26:01;22.65;;;9.70;;
64061;SDS011;50308;47.438;-1.528;2024-01-30T03:28:29;15.60;;;8.75;;
64061;SDS011;50308;47.438;-1.528;2024-01-30T03:30:55;19.52;;;8.88;;
64061;SDS011;50308;47.438;-1.528;2024-01-30T03:33:20;19.38;;;8.82;;
64061;SDS011;50308;47.438;-1.528;2024-01-30T03:35:46;23.55;;;8.88;;
64061;SDS011;50308;47.438;-1.528;2024-01-30T03:38:11;22.08;;;9.02;;
64061;SDS011;50308;47.438;-1.528;2024-01-30T03:40:37;18.75;;;9.25;;
64061;SDS011;50308;47.438;-1.528;2024-01-30T03:43:03;19.95;;;8.90;;
64061;SDS011;50308;47.438;-1.528;2024-01-30T03:45:30;17.48;;;8.82;;
64061;SDS011;50308;47.438;-1.528;2024-01-30T03:47:55;18.35;;;8.35;;
64061;SDS011;50308;47.438;-1.528;2024-01-30T03:50:21;16.17;;;7.93;;
64061;SDS011;50308;47.438;-1.528;2024-01-30T03:52:46;16.42;;;7.85;;
64061;SDS011;50308;47.438;-1.528;2024-01-30T03:55:12;15.18;;;8.73;;
64061;SDS011;50308;47.438;-1.528;2024-01-30T03:57:38;20.67;;;8.65;;
64061;SDS011;50308;47.438;-1.528;2024-01-30T04:00:04;16.25;;;7.55;;
64061;SDS011;50308;47.438;-1.528;2024-01-30T04:02:30;20.38;;;8.35;;
64061;SDS011;50308;47.438;-1.528;2024-01-30T04:04:55;14.38;;;7.60;;
64061;SDS011;50308;47.438;-1.528;2024-01-30T04:07:21;15.90;;;7.43;;
64061;SDS011;50308;47.438;-1.528;2024-01-30T04:09:47;15.27;;;7.40;;
64061;SDS011;50308;47.438;-1.528;2024-01-30T04:12:13;15.93;;;7.43;;
64061;SDS011;50308;47.438;-1.528;2024-01-30T04:14:39;13.88;;;7.95;;
64061;SDS011;50308;47.438;-1.528;2024-01-30T04:17:05;17.60;;;6.05;;
64061;SDS011;50308;47.438;-1.528;2024-01-30T04:19:30;17.02;;;6.22;;
64061;SDS011;50308;47.438;-1.528;2024-01-30T04:21:56;14.23;;;4.53;;
64061;SDS011;50308;47.438;-1.528;2024-01-30T04:24:21;9.43;;;4.40;;
64061;SDS011;50308;47.438;-1.528;2024-01-30T04:26:47;16.13;;;4.40;;
64061;SDS011;50308;47.438;-1.528;2024-01-30T04:29:13;8.07;;;2.60;;
64061;SDS011;50308;47.438;-1.528;2024-01-30T04:31:38;8.90;;;2.95;;
64061;SDS011;50308;47.438;-1.528;2024-01-30T04:34:04;5.75;;;2.45;;
64061;SDS011;50308;47.438;-1.528;2024-01-30T04:36:29;5.28;;;2.20;;
64061;SDS011;50308;47.438;-1.528;2024-01-30T04:38:55;7.38;;;2.10;;
64061;SDS011;50308;47.438;-1.528;2024-01-30T04:41:21;4.93;;;1.55;;
64061;SDS011;50308;47.438;-1.528;2024-01-30T04:43:46;4.05;;;1.42;;
64061;SDS011;50308;47.438;-1.528;2024-01-30T04:46:12;3.97;;;1.73;;
64061;SDS011;50308;47.438;-1.528;2024-01-30T04:48:37;5.55;;;1.73;;
64061;SDS011;50308;47.438;-1.528;2024-01-30T04:51:03;4.45;;;1.70;;
64061;SDS011;50308;47.438;-1.528;2024-01-30T04:53:30;4.53;;;1.30;;
64061;SDS011;50308;47.438;-1.528;2024-01-30T04:55:56;5.45;;;1.50;;
64061;SDS011;50308;47.438;-1.528;2024-01-30T04:58:22;2.40;;;1.33;;
64061;SDS011;50308;47.438;-1.528;2024-01-30T05:00:47;7.28;;;1.60;;
64061;SDS011;50308;47.438;-1.528;2024-01-30T05:03:16;4.95;;;1.38;;
64061;SDS011;50308;47.438;-1.528;2024-01-30T05:05:44;4.15;;;1.17;;
64061;SDS011;50308;47.438;-1.528;2024-01-30T05:08:09;4.88;;;1.15;;
64061;SDS011;50308;47.438;-1.528;2024-01-30T05:10:35;3.50;;;1.15;;
64061;SDS011;50308;47.438;-1.528;2024-01-30T05:13:01;3.00;;;1.35;;
64061;SDS011;50308;47.438;-1.528;2024-01-30T05:15:26;2.55;;;1.00;;
64061;SDS011;50308;47.438;-1.528;2024-01-30T05:17:52;4.25;;;1.10;;
64061;SDS011;50308;47.438;-1.528;2024-01-30T05:20:19;2.40;;;1.00;;
64061;SDS011;50308;47.438;-1.528;2024-01-30T05:22:45;3.40;;;1.15;;
64061;SDS011;50308;47.438;-1.528;2024-01-30T05:25:13;4.65;;;0.95;;
64061;SDS011;50308;47.438;-1.528;2024-01-30T05:27:39;2.55;;;0.95;;
64061;SDS011;50308;47.438;-1.528;2024-01-30T05:30:06;2.60;;;1.17;;
64061;SDS011;50308;47.438;-1.528;2024-01-30T05:32:32;3.47;;;1.15;;
64061;SDS011;50308;47.438;-1.528;2024-01-30T05:34:58;3.85;;;1.00;;
64061;SDS011;50308;47.438;-1.528;2024-01-30T05:37:23;3.55;;;1.10;;
64061;SDS011;50308;47.438;-1.528;2024-01-30T05:39:49;3.90;;;1.10;;
64061;SDS011;50308;47.438;-1.528;2024-01-30T05:42:15;4.63;;;1.70;;
64061;SDS011;50308;47.438;-1.528;2024-01-30T05:44:41;2.83;;;1.42;;
64061;SDS011;50308;47.438;-1.528;2024-01-30T05:47:07;3.40;;;1.60;;
64061;SDS011;50308;47.438;-1.528;2024-01-30T05:49:33;6.72;;;2.63;;
64061;SDS011;50308;47.438;-1.528;2024-01-30T05:51:59;7.55;;;2.90;;
64061;SDS011;50308;47.438;-1.528;2024-01-30T05:54:27;6.82;;;3.25;;
64061;SDS011;50308;47.438;-1.528;2024-01-30T05:56:52;38.95;;;18.48;;
64061;SDS011;50308;47.438;-1.528;2024-01-30T05:59:18;9.00;;;4.43;;
64061;SDS011;50308;47.438;-1.528;2024-01-30T06:01:47;15.02;;;6.63;;
64061;SDS011;50308;47.438;-1.528;2024-01-30T06:04:13;10.48;;;4.50;;
64061;SDS011;50308;47.438;-1.528;2024-01-30T06:06:39;9.02;;;3.90;;
64061;SDS011;50308;47.438;-1.528;2024-01-30T06:09:05;7.35;;;3.33;;
64061;SDS011;50308;47.438;-1.528;2024-01-30T06:11:31;11.65;;;5.55;;
64061;SDS011;50308;47.438;-1.528;2024-01-30T06:13:57;5.07;;;2.47;;
64061;SDS011;50308;47.438;-1.528;2024-01-30T06:16:22;7.95;;;3.13;;
64061;SDS011;50308;47.438;-1.528;2024-01-30T06:18:48;4.65;;;2.17;;
64061;SDS011;50308;47.438;-1.528;2024-01-30T06:21:14;6.28;;;2.65;;
64061;SDS011;50308;47.438;-1.528;2024-01-30T06:23:39;9.88;;;4.35;;
64061;SDS011;50308;47.438;-1.528;2024-01-30T06:26:06;8.25;;;3.95;;
64061;SDS011;50308;47.438;-1.528;2024-01-30T06:28:32;8.68;;;4.38;;
64061;SDS011;50308;47.438;-1.528;2024-01-30T06:30:57;5.32;;;3.25;;
64061;SDS011;50308;47.438;-1.528;2024-01-30T06:33:25;6.28;;;4.60;;
64061;SDS011;50308;47.438;-1.528;2024-01-30T06:35:51;5.22;;;2.58;;
64061;SDS011;50308;47.438;-1.528;2024-01-30T06:38:16;4.70;;;3.63;;
64061;SDS011;50308;47.438;-1.528;2024-01-30T06:40:42;4.63;;;2.13;;
64061;SDS011;50308;47.438;-1.528;2024-01-30T06:43:08;4.60;;;2.60;;
64061;SDS011;50308;47.438;-1.528;2024-01-30T06:45:33;6.38;;;3.22;;
64061;SDS011;50308;47.438;-1.528;2024-01-30T06:47:59;6.93;;;2.78;;
64061;SDS011;50308;47.438;-1.528;2024-01-30T06:50:25;5.32;;;2.53;;
64061;SDS011;50308;47.438;-1.528;2024-01-30T06:52:51;4.07;;;2.42;;
64061;SDS011;50308;47.438;-1.528;2024-01-30T06:55:17;4.40;;;2.63;;
64061;SDS011;50308;47.438;-1.528;2024-01-30T06:57:43;3.50;;;2.28;;
64061;SDS011;50308;47.438;-1.528;2024-01-30T07:00:09;3.30;;;1.70;;
64061;SDS011;50308;47.438;-1.528;2024-01-30T07:02:35;3.30;;;1.80;;
64061;SDS011;50308;47.438;-1.528;2024-01-30T07:05:01;6.45;;;1.88;;
64061;SDS011;50308;47.438;-1.528;2024-01-30T07:07:28;4.60;;;1.70;;
64061;SDS011;50308;47.438;-1.528;2024-01-30T07:09:54;2.88;;;1.67;;
64061;SDS011;50308;47.438;-1.528;2024-01-30T07:12:22;3.58;;;1.48;;
64061;SDS011;50308;47.438;-1.528;2024-01-30T07:14:49;2.17;;;1.65;;
64061;SDS011;50308;47.438;-1.528;2024-01-30T07:17:15;5.88;;;2.00;;
64061;SDS011;50308;47.438;-1.528;2024-01-30T07:19:41;2.88;;;1.58;;
64061;SDS011;50308;47.438;-1.528;2024-01-30T07:22:07;7.10;;;2.10;;
64061;SDS011;50308;47.438;-1.528;2024-01-30T07:24:33;3.03;;;1.88;;
64061;SDS011;50308;47.438;-1.528;2024-01-30T07:26:58;3.85;;;1.98;;
64061;SDS011;50308;47.438;-1.528;2024-01-30T07:29:24;3.05;;;2.30;;
64061;SDS011;50308;47.438;-1.528;2024-01-30T07:31:50;5.50;;;2.20;;
64061;SDS011;50308;47.438;-1.528;2024-01-30T07:34:15;7.00;;;2.20;;
64061;SDS011;50308;47.438;-1.528;2024-01-30T07:36:41;3.22;;;2.10;;
64061;SDS011;50308;47.438;-1.528;2024-01-30T07:39:07;4.47;;;2.38;;
64061;SDS011;50308;47.438;-1.528;2024-01-30T07:41:33;5.85;;;2.40;;
64061;SDS011;50308;47.438;-1.528;2024-01-30T07:43:58;3.15;;;2.08;;
64061;SDS011;50308;47.438;-1.528;2024-01-30T07:46:25;4.40;;;2.22;;
64061;SDS011;50308;47.438;-1.528;2024-01-30T07:48:50;6.20;;;2.90;;
64061;SDS011;50308;47.438;-1.528;2024-01-30T07:51:16;4.45;;;2.60;;
64061;SDS011;50308;47.438;-1.528;2024-01-30T07:53:42;3.60;;;2.25;;
64061;SDS011;50308;47.438;-1.528;2024-01-30T07:56:07;4.90;;;2.67;;
64061;SDS011;50308;47.438;-1.528;2024-01-30T07:58:33;2.83;;;2.20;;
64061;SDS011;50308;47.438;-1.528;2024-01-30T08:00:58;3.03;;;1.95;;
64061;SDS011;50308;47.438;-1.528;2024-01-30T08:03:25;2.70;;;2.00;;
64061;SDS011;50308;47.438;-1.528;2024-01-30T08:05:51;3.58;;;2.22;;
64061;SDS011;50308;47.438;-1.528;2024-01-30T08:08:16;4.20;;;2.80;;
64061;SDS011;50308;47.438;-1.528;2024-01-30T08:10:42;5.50;;;3.00;;
64061;SDS011;50308;47.438;-1.528;2024-01-30T08:13:08;4.50;;;3.47;;
64061;SDS011;50308;47.438;-1.528;2024-01-30T08:15:34;5.30;;;3.20;;
64061;SDS011;50308;47.438;-1.528;2024-01-30T08:18:00;6.03;;;3.20;;
64061;SDS011;50308;47.438;-1.528;2024-01-30T08:20:26;3.53;;;2.45;;
64061;SDS011;50308;47.438;-1.528;2024-01-30T08:22:52;3.97;;;2.60;;
64061;SDS011;50308;47.438;-1.528;2024-01-30T08:25:17;5.55;;;3.72;;
64061;SDS011;50308;47.438;-1.528;2024-01-30T08:27:43;9.02;;;5.82;;
64061;SDS011;50308;47.438;-1.528;2024-01-30T08:30:09;10.43;;;6.05;;
64061;SDS011;50308;47.438;-1.528;2024-01-30T08:32:35;12.02;;;6.47;;
64061;SDS011;50308;47.438;-1.528;2024-01-30T08:35:01;10.40;;;7.25;;
64061;SDS011;50308;47.438;-1.528;2024-01-30T08:37:30;21.83;;;9.77;;
64061;SDS011;50308;47.438;-1.528;2024-01-30T08:39:56;19.95;;;10.70;;
64061;SDS011;50308;47.438;-1.528;2024-01-30T08:42:21;18.42;;;10.43;;
64061;SDS011;50308;47.438;-1.528;2024-01-30T08:44:48;15.20;;;8.02;;
64061;SDS011;50308;47.438;-1.528;2024-01-30T08:47:14;14.32;;;7.13;;
64061;SDS011;50308;47.438;-1.528;2024-01-30T08:49:42;14.55;;;7.13;;
64061;SDS011;50308;47.438;-1.528;2024-01-30T08:52:09;14.60;;;9.23;;
64061;SDS011;50308;47.438;-1.528;2024-01-30T08:54:35;17.27;;;8.95;;
64061;SDS011;50308;47.438;-1.528;2024-01-30T08:57:01;11.40;;;6.90;;
64061;SDS011;50308;47.438;-1.528;2024-01-30T08:59:27;17.08;;;8.13;;
64061;SDS011;50308;47.438;-1.528;2024-01-30T09:01:52;16.50;;;8.40;;
64061;SDS011;50308;47.438;-1.528;2024-01-30T09:04:20;12.35;;;6.80;;
64061;SDS011;50308;47.438;-1.528;2024-01-30T09:06:47;13.48;;;8.40;;
64061;SDS011;50308;47.438;-1.528;2024-01-30T09:09:14;11.95;;;6.25;;
64061;SDS011;50308;47.438;-1.528;2024-01-30T09:11:40;9.25;;;6.82;;
64061;SDS011;50308;47.438;-1.528;2024-01-30T09:14:05;11.73;;;6.25;;
64061;SDS011;50308;47.438;-1.528;2024-01-30T09:16:31;16.20;;;10.10;;
64061;SDS011;50308;47.438;-1.528;2024-01-30T09:18:57;10.20;;;7.05;;
64061;SDS011;50308;47.438;-1.528;2024-01-30T09:21:23;23.02;;;14.88;;
64061;SDS011;50308;47.438;-1.528;2024-01-30T09:23:49;8.82;;;5.63;;
64061;SDS011;50308;47.438;-1.528;2024-01-30T09:26:14;9.15;;;6.43;;
64061;SDS011;50308;47.438;-1.528;2024-01-30T09:28:40;23.15;;;14.88;;
64061;SDS011;50308;47.438;-1.528;2024-01-30T09:31:10;36.25;;;22.52;;
64061;SDS011;50308;47.438;-1.528;2024-01-30T09:33:39;26.70;;;16.50;;
64061;SDS011;50308;47.438;-1.528;2024-01-30T09:36:05;20.33;;;12.93;;
64061;SDS011;50308;47.438;-1.528;2024-01-30T09:38:31;15.75;;;9.25;;
64061;SDS011;50308;47.438;-1.528;2024-01-30T09:40:57;26.80;;;17.67;;
64061;SDS011;50308;47.438;-1.528;2024-01-30T09:43:28;19.00;;;10.82;;
64061;SDS011;50308;47.438;-1.528;2024-01-30T09:45:59;30.10;;;21.38;;
64061;SDS011;50308;47.438;-1.528;2024-01-30T09:48:27;17.70;;;11.88;;
64061;SDS011;50308;47.438;-1.528;2024-01-30T09:50:55;13.85;;;8.38;;
64061;SDS011;50308;47.438;-1.528;2024-01-30T09:53:22;18.25;;;12.88;;
64061;SDS011;50308;47.438;-1.528;2024-01-30T09:55:48;20.35;;;12.20;;
64061;SDS011;50308;47.438;-1.528;2024-01-30T09:58:15;25.92;;;19.67;;
64061;SDS011;50308;47.438;-1.528;2024-01-30T10:00:41;25.17;;;17.98;;
64061;SDS011;50308;47.438;-1.528;2024-01-30T10:03:07;16.92;;;12.40;;
64061;SDS011;50308;47.438;-1.528;2024-01-30T10:05:34;16.77;;;12.23;;
64061;SDS011;50308;47.438;-1.528;2024-01-30T10:08:05;13.25;;;8.55;;
64061;SDS011;50308;47.438;-1.528;2024-01-30T10:10:33;9.00;;;7.40;;
64061;SDS011;50308;47.438;-1.528;2024-01-30T10:12:59;9.18;;;5.97;;
64061;SDS011;50308;47.438;-1.528;2024-01-30T10:15:25;9.15;;;4.90;;
64061;SDS011;50308;47.438;-1.528;2024-01-30T10:17:52;10.32;;;7.00;;
64061;SDS011;50308;47.438;-1.528;2024-01-30T10:20:18;5.45;;;3.70;;
64061;SDS011;50308;47.438;-1.528;2024-01-30T10:22:44;4.03;;;2.78;;
64061;SDS011;50308;47.438;-1.528;2024-01-30T10:25:11;5.35;;;3.22;;
64061;SDS011;50308;47.438;-1.528;2024-01-30T10:27:36;6.63;;;2.80;;
64061;SDS011;50308;47.438;-1.528;2024-01-30T10:30:04;7.60;;;3.05;;
64061;SDS011;50308;47.438;-1.528;2024-01-30T10:32:30;2.75;;;2.03;;
64061;SDS011;50308;47.438;-1.528;2024-01-30T10:34:56;2.85;;;2.08;;
64061;SDS011;50308;47.438;-1.528;2024-01-30T10:37:22;3.85;;;1.65;;
64061;SDS011;50308;47.438;-1.528;2024-01-30T10:39:50;2.05;;;1.50;;
64061;SDS011;50308;47.438;-1.528;2024-01-30T10:42:20;2.42;;;1.98;;
64061;SDS011;50308;47.438;-1.528;2024-01-30T10:44:59;2.38;;;1.38;;
64061;SDS011;50308;47.438;-1.528;2024-01-30T10:47:33;2.88;;;1.20;;
64061;SDS011;50308;47.438;-1.528;2024-01-30T10:50:00;2.70;;;1.23;;
64061;SDS011;50308;47.438;-1.528;2024-01-30T10:52:28;1.55;;;0.98;;
64061;SDS011;50308;47.438;-1.528;2024-01-30T10:54:55;2.33;;;0.93;;
64061;SDS011;50308;47.438;-1.528;2024-01-30T10:57:23;2.20;;;1.20;;
64061;SDS011;50308;47.438;-1.528;2024-01-30T10:59:49;2.90;;;1.02;;
64061;SDS011;50308;47.438;-1.528;2024-01-30T11:02:17;2.72;;;1.23;;
64061;SDS011;50308;47.438;-1.528;2024-01-30T11:04:44;2.88;;;0.95;;
64061;SDS011;50308;47.438;-1.528;2024-01-30T11:07:15;3.17;;;1.10;;
64061;SDS011;50308;47.438;-1.528;2024-01-30T11:09:48;1.95;;;1.20;;
64061;SDS011;50308;47.438;-1.528;2024-01-30T11:12:21;1.58;;;1.17;;
64061;SDS011;50308;47.438;-1.528;2024-01-30T11:14:48;1.23;;;1.00;;
64061;SDS011;50308;47.438;-1.528;2024-01-30T11:17:15;3.97;;;1.17;;
64061;SDS011;50308;47.438;-1.528;2024-01-30T11:19:41;2.03;;;1.17;;
64061;SDS011;50308;47.438;-1.528;2024-01-30T11:22:10;3.03;;;1.00;;
64061;SDS011;50308;47.438;-1.528;2024-01-30T11:24:39;2.55;;;1.02;;
64061;SDS011;50308;47.438;-1.528;2024-01-30T11:27:09;1.75;;;1.00;;
64061;SDS011;50308;47.438;-1.528;2024-01-30T11:29:38;1.67;;;1.10;;
64061;SDS011;50308;47.438;-1.528;2024-01-30T11:32:05;1.92;;;1.10;;
64061;SDS011;50308;47.438;-1.528;2024-01-30T11:34:32;1.85;;;1.13;;
64061;SDS011;50308;47.438;-1.528;2024-01-30T11:37:02;2.65;;;1.20;;
64061;SDS011;50308;47.438;-1.528;2024-01-30T11:39:34;2.58;;;0.90;;
64061;SDS011;50308;47.438;-1.528;2024-01-30T11:42:01;1.77;;;1.10;;
64061;SDS011;50308;47.438;-1.528;2024-01-30T11:44:30;2.58;;;1.08;;
64061;SDS011;50308;47.438;-1.528;2024-01-30T11:46:56;3.90;;;1.23;;
64061;SDS011;50308;47.438;-1.528;2024-01-30T11:49:21;4.00;;;1.48;;
64061;SDS011;50308;47.438;-1.528;2024-01-30T11:51:48;1.13;;;1.00;;
64061;SDS011;50308;47.438;-1.528;2024-01-30T11:54:15;1.80;;;1.10;;
64061;SDS011;50308;47.438;-1.528;2024-01-30T11:56:41;2.20;;;0.80;;
64061;SDS011;50308;47.438;-1.528;2024-01-30T11:59:08;1.33;;;0.75;;
64061;SDS011;50308;47.438;-1.528;2024-01-30T12:01:34;1.20;;;0.80;;
64061;SDS011;50308;47.438;-1.528;2024-01-30T12:04:00;1.05;;;0.60;;
64061;SDS011;50308;47.438;-1.528;2024-01-30T12:06:26;2.10;;;1.00;;
64061;SDS011;50308;47.438;-1.528;2024-01-30T12:08:59;1.73;;;0.70;;
64061;SDS011;50308;47.438;-1.528;2024-01-30T12:11:26;2.78;;;0.82;;
64061;SDS011;50308;47.438;-1.528;2024-01-30T12:13:52;1.88;;;0.95;;
64061;SDS011;50308;47.438;-1.528;2024-01-30T12:16:19;1.48;;;0.93;;
64061;SDS011;50308;47.438;-1.528;2024-01-30T12:18:45;0.82;;;0.70;;
64061;SDS011;50308;47.438;-1.528;2024-01-30T12:21:10;2.45;;;0.70;;
64061;SDS011;50308;47.438;-1.528;2024-01-30T12:23:36;3.65;;;0.90;;
64061;SDS011;50308;47.438;-1.528;2024-01-30T12:26:02;1.67;;;1.23;;
64061;SDS011;50308;47.438;-1.528;2024-01-30T12:28:31;1.27;;;0.70;;
64061;SDS011;50308;47.438;-1.528;2024-01-30T12:31:04;1.58;;;0.70;;
64061;SDS011;50308;47.438;-1.528;2024-01-30T12:33:30;0.85;;;0.57;;
64061;SDS011;50308;47.438;-1.528;2024-01-30T12:35:56;1.23;;;0.73;;
64061;SDS011;50308;47.438;-1.528;2024-01-30T12:38:23;1.35;;;0.70;;
64061;SDS011;50308;47.438;-1.528;2024-01-30T12:40:50;2.05;;;0.90;;
64061;SDS011;50308;47.438;-1.528;2024-01-30T12:43:26;1.67;;;0.70;;
64061;SDS011;50308;47.438;-1.528;2024-01-30T12:45:54;1.35;;;0.70;;
64061;SDS011;50308;47.438;-1.528;2024-01-30T12:48:20;1.15;;;0.70;;
64061;SDS011;50308;47.438;-1.528;2024-01-30T12:50:46;2.08;;;0.70;;
64061;SDS011;50308;47.438;-1.528;2024-01-30T12:53:11;0.75;;;0.60;;
64061;SDS011;50308;47.438;-1.528;2024-01-30T12:55:38;1.48;;;0.75;;
64061;SDS011;50308;47.438;-1.528;2024-01-30T12:58:03;1.65;;;0.70;;
64061;SDS011;50308;47.438;-1.528;2024-01-30T13:00:29;1.52;;;0.90;;
64061;SDS011;50308;47.438;-1.528;2024-01-30T13:02:55;2.85;;;1.20;;
64061;SDS011;50308;47.438;-1.528;2024-01-30T13:05:20;2.58;;;1.30;;
64061;SDS011;50308;47.438;-1.528;2024-01-30T13:07:47;4.72;;;2.55;;
64061;SDS011;50308;47.438;-1.528;2024-01-30T13:10:12;4.90;;;2.88;;
64061;SDS011;50308;47.438;-1.528;2024-01-30T13:12:38;23.83;;;11.40;;
64061;SDS011;50308;47.438;-1.528;2024-01-30T13:15:04;24.70;;;10.45;;
64061;SDS011;50308;47.438;-1.528;2024-01-30T13:17:30;26.73;;;10.55;;
64061;SDS011;50308;47.438;-1.528;2024-01-30T13:19:56;24.08;;;10.25;;
64061;SDS011;50308;47.438;-1.528;2024-01-30T13:22:23;15.55;;;7.70;;
64061;SDS011;50308;47.438;-1.528;2024-01-30T13:24:49;16.75;;;7.45;;
64061;SDS011;50308;47.438;-1.528;2024-01-30T13:27:15;25.48;;;11.23;;
64061;SDS011;50308;47.438;-1.528;2024-01-30T13:29:41;51.40;;;20.92;;
64061;SDS011;50308;47.438;-1.528;2024-01-30T13:32:07;49.05;;;22.67;;
64061;SDS011;50308;47.438;-1.528;2024-01-30T13:34:32;55.85;;;24.35;;
64061;SDS011;50308;47.438;-1.528;2024-01-30T13:36:58;51.53;;;20.40;;
64061;SDS011;50308;47.438;-1.528;2024-01-30T13:39:24;40.30;;;18.02;;
64061;SDS011;50308;47.438;-1.528;2024-01-30T13:41:49;29.00;;;13.70;;
64061;SDS011;50308;47.438;-1.528;2024-01-30T13:44:15;24.02;;;11.77;;
64061;SDS011;50308;47.438;-1.528;2024-01-30T13:46:42;23.83;;;12.48;;
64061;SDS011;50308;47.438;-1.528;2024-01-30T13:49:08;22.88;;;11.57;;
64061;SDS011;50308;47.438;-1.528;2024-01-30T13:51:34;20.38;;;8.77;;
64061;SDS011;50308;47.438;-1.528;2024-01-30T13:53:59;14.30;;;6.93;;
64061;SDS011;50308;47.438;-1.528;2024-01-30T13:56:25;11.57;;;6.18;;
64061;SDS011;50308;47.438;-1.528;2024-01-30T13:58:51;8.25;;;4.50;;
64061;SDS011;50308;47.438;-1.528;2024-01-30T14:01:17;6.47;;;4.28;;
64061;SDS011;50308;47.438;-1.528;2024-01-30T14:03:43;12.40;;;6.18;;
64061;SDS011;50308;47.438;-1.528;2024-01-30T14:06:09;7.45;;;4.50;;
64061;SDS011;50308;47.438;-1.528;2024-01-30T14:08:35;8.30;;;4.53;;
64061;SDS011;50308;47.438;-1.528;2024-01-30T14:11:01;7.03;;;3.92;;
64061;SDS011;50308;47.438;-1.528;2024-01-30T14:13:26;8.35;;;4.70;;
64061;SDS011;50308;47.438;-1.528;2024-01-30T14:15:52;10.88;;;6.68;;
64061;SDS011;50308;47.438;-1.528;2024-01-30T14:18:18;7.70;;;4.30;;